Latest Weather Observations for Samuel Hill

IDQ60801

Issued at 7:32 am EST Wednesday 8 July 2015 (issued every 30 minutes, with the page automatically refreshed every 10 minutes)

About weather observations | Map of weather stations | Latest weather observations for QLD | Other Formats
Station Details ID: 033308 Name: SAMUEL HILL AERO Lat: -22.74 Lon: 150.66 Height: 31.0 m
Data from the previous 72 hours. | See also: Recent months at Samuel Hill
Date/Time
EST
Temp
°C
App
Temp
°C
Dew
Point
Rel
Hum
%
Delta-T
°C
Wind Press
QNH
hPa
Press
MSL
hPa
Rain
since 9 am
mm
Dir
 
Spd
km/h
Gust
km/h
Spd
kts
Gust
kts
08/07:00am 13.5 12.0 10.7 83 1.5 S 9 13 5 7 1019.9 1019.9 0.0
08/06:30am 13.1 11.6 10.5 84 1.3 SSE 9 13 5 7 1019.5 1019.5 0.0
08/06:00am 12.9 11.2 9.9 82 1.5 SSE 9 11 5 6 1019.3 1019.3 0.0
08/05:30am 13.5 11.6 10.5 82 1.6 S 11 13 6 7 1019.0 1019.0 0.0
08/05:00am 14.0 12.4 11.5 85 1.3 S 11 17 6 9 1018.7 1018.7 0.0
08/04:30am 13.1 11.5 11.7 91 0.7 SSE 11 13 6 7 1018.6 1018.6 0.0
08/04:00am 12.3 11.1 11.5 95 0.4 SE 9 11 5 6 1018.6 1018.6 0.0
08/03:30am 10.9 9.6 10.1 95 0.4 SSE 7 9 4 5 1018.6 1018.6 0.0
08/03:00am 10.3 9.4 9.4 94 0.4 S 4 7 2 4 1018.4 1018.4 0.0
08/02:30am 10.2 10.1 9.3 94 0.4 CALM 0 0 0 0 1018.3 1018.3 0.0
08/02:00am 10.1 9.9 9.2 94 0.4 CALM 0 0 0 0 1018.4 1018.4 0.0
08/01:30am 9.9 9.7 9.0 94 0.4 CALM 0 7 0 4 1018.5 1018.5 0.0
08/01:00am 10.1 9.9 9.2 94 0.4 CALM 0 0 0 0 1018.7 1018.7 0.0
08/12:30am 9.9 9.6 8.8 93 0.5 CALM 0 0 0 0 1018.5 1018.5 0.0
 
Date/Time
EST
Temp
°C
App
Temp
°C
Dew
Point
Rel
Hum
%
Delta-T
°C
Wind Press
QNH
hPa
Press
MSL
hPa
Rain
since 9 am
mm
Dir
 
Spd
km/h
Gust
km/h
Spd
kts
Gust
kts
07/11:30pm 10.2 10.0 9.0 92 0.6 CALM 0 0 0 0 1018.5 1018.5 0.0
07/11:00pm 10.8 10.7 9.6 92 0.6 CALM 0 0 0 0 1018.7 1018.7 0.0
07/10:30pm 11.1 11.1 9.9 92 0.6 CALM 0 0 0 0 1018.7 1018.7 0.0
07/10:00pm 11.5 11.6 10.1 91 0.7 CALM 0 0 0 0 1018.6 1018.6 0.0
07/09:30pm 12.2 11.1 10.8 91 0.7 WSW 7 7 4 4 1018.6 1018.6 0.0
07/09:00pm 12.2 12.5 10.8 91 0.7 CALM 0 0 0 0 1018.6 1018.6 0.0
07/08:30pm 12.5 12.7 10.7 89 0.9 CALM 0 0 0 0 1018.6 1018.6 0.0
07/08:00pm 13.5 12.8 11.4 87 1.1 SW 6 9 3 5 1018.4 1018.4 0.0
07/07:30pm 14.2 13.6 11.7 85 1.3 NW 6 7 3 4 1018.1 1018.1 0.0
07/07:00pm 14.8 15.4 11.8 82 1.6 CALM 0 0 0 0 1017.7 1017.7 0.0
07/06:30pm 16.9 17.5 13.0 78 2.2 E 2 6 1 3 1017.4 1017.4 0.0
07/06:00pm 18.7 18.2 13.8 73 2.8 ENE 9 13 5 7 1017.1 1017.1 0.0
07/05:30pm 19.4 18.6 10.9 58 4.6 ENE 6 7 3 4 1016.9 1016.9 0.0
07/05:00pm 21.5 19.8 10.0 48 6.2 ENE 9 11 5 6 1016.6 1016.6 0.0
07/04:30pm 22.8 21.0 9.6 43 7.1 E 9 13 5 7 1016.4 1016.4 0.0
07/04:00pm 23.3 20.4 8.2 38 8.0 ESE 13 19 7 10 1016.1 1016.1 0.0
07/03:30pm 24.0 22.0 10.3 42 7.6 SE 11 19 6 10 1015.9 1015.9 0.0
07/03:00pm 24.2 21.5 9.0 38 8.2 SE 13 22 7 12 1015.9 1015.9 0.0
07/02:30pm 24.3 21.0 7.9 35 8.7 ESE 15 24 8 13 1015.9 1015.9 0.0
07/02:00pm 24.3 21.1 8.3 36 8.5 ESE 15 24 8 13 1016.0 1016.0 0.0
07/01:30pm 24.2 21.3 8.2 36 8.5 SE 13 20 7 11 1016.0 1016.0 0.0
07/01:00pm 24.5 21.9 9.3 38 8.3 SSE 13 19 7 10 1016.2 1016.2 0.0
07/12:30pm 23.9 21.5 9.9 41 7.7 SE 13 20 7 11 1016.5 1016.5 0.0
07/12:00pm 24.3 22.2 11.3 44 7.3 E 13 19 7 10 1017.0 1017.0 0.0
07/11:30am 24.0 23.9 13.8 53 6.0 NE 7 11 4 6 1017.5 1017.5 0.0
07/11:00am 22.4 22.0 14.0 59 4.9 SSE 9 11 5 6 1018.0 1018.0 0.0
07/10:30am 22.0 21.9 13.9 60 4.7 E 7 13 4 7 1018.4 1018.4 0.0
07/10:00am 20.9 21.2 15.0 69 3.5 SSE 7 11 4 6 1018.7 1018.7 0.0
07/09:30am 19.3 19.5 14.3 73 2.9 SSE 6 7 3 4 1018.9 1018.9 0.0
07/09:00am 17.3 17.8 14.0 81 1.9 SSW 4 9 2 5 1018.7 1018.7 0.0
07/08:30am 15.2 15.3 12.7 85 1.4 SSW 4 6 2 3 1018.6 1018.6 0.0
07/08:00am 13.4 14.1 12.3 93 0.6 CALM 0 0 0 0 1018.5 1018.5 0.0
07/07:30am 10.6 10.6 9.7 94 0.5 CALM 0 0 0 0 1018.2 1018.2 0.0
07/07:00am 9.2 8.1 8.4 95 0.4 S 4 7 2 4 1017.8 1017.8 0.0
07/06:30am 8.2 7.6 7.3 94 0.4 CALM 0 0 0 0 1017.4 1017.4 0.0
07/06:00am 8.3 7.7 7.4 94 0.4 CALM 0 0 0 0 1017.1 1017.1 0.0
07/05:30am 8.5 7.9 7.6 94 0.4 CALM 0 0 0 0 1016.7 1016.7 0.0
07/05:00am 8.4 7.8 7.5 94 0.4 CALM 0 0 0 0 1016.4 1016.4 0.0
07/04:30am 8.4 7.8 7.5 94 0.4 CALM 0 0 0 0 1016.4 1016.4 0.0
07/04:18am 8.8 8.3 7.9 94 0.4 CALM 0 0 0 0 1016.4 1016.4 0.0
07/04:00am 8.5 7.9 7.6 94 0.4 CALM 0 0 0 0 1016.3 1016.3 0.0
07/03:30am 9.1 8.7 8.2 94 0.4 CALM 0 0 0 0 1016.4 1016.4 0.0
07/03:14am 9.1 8.7 8.2 94 0.4 CALM 0 0 0 0 1016.6 1016.6 0.0
07/03:00am 9.0 8.6 8.1 94 0.4 CALM 0 0 0 0 1016.7 1016.7 0.0
07/02:50am 9.2 8.8 8.3 94 0.4 CALM 0 0 0 0 1016.7 1016.7 0.0
07/02:46am 9.3 8.9 8.4 94 0.4 CALM 0 0 0 0 1016.8 1016.8 0.0
07/02:30am 9.2 8.8 8.3 94 0.4 CALM 0 0 0 0 1016.9 1016.9 0.0
07/02:00am 9.4 9.0 8.3 93 0.5 CALM 0 0 0 0 1017.1 1017.1 0.0
07/01:30am 9.6 9.3 8.7 94 0.4 CALM 0 0 0 0 1017.3 1017.3 0.0
07/01:00am 9.6 9.3 8.5 93 0.5 CALM 0 0 0 0 1017.4 1017.4 0.0
07/12:30am 9.8 9.5 8.7 93 0.5 CALM 0 0 0 0 1017.6 1017.6 0.0
07/12:00am 10.0 9.8 8.9 93 0.5 CALM 0 0 0 0 1017.8 1017.8 0.0
 
Date/Time
EST
Temp
°C
App
Temp
°C
Dew
Point
Rel
Hum
%
Delta-T
°C
Wind Press
QNH
hPa
Press
MSL
hPa
Rain
since 9 am
mm
Dir
 
Spd
km/h
Gust
km/h
Spd
kts
Gust
kts
06/11:30pm 10.3 10.1 9.2 93 0.5 CALM 0 0 0 0 1017.9 1017.9 0.0
06/11:00pm 10.1 9.9 8.9 92 0.6 CALM 0 0 0 0 1018.1 1018.1 0.0
06/10:30pm 10.6 10.5 9.4 92 0.6 CALM 0 0 0 0 1018.2 1018.2 0.0
06/10:00pm 11.0 11.0 9.8 92 0.6 CALM 0 0 0 0 1018.2 1018.2 0.0
06/09:30pm 11.0 11.0 9.8 92 0.6 CALM 0 0 0 0 1018.1 1018.1 0.0
06/09:00pm 11.2 11.2 9.8 91 0.7 CALM 0 0 0 0 1018.1 1018.1 0.0
06/08:30pm 12.0 12.2 10.6 91 0.7 CALM 0 0 0 0 1018.2 1018.2 0.0
06/08:00pm 12.0 11.3 10.2 89 0.9 WNW 4 7 2 4 1018.1 1018.1 0.0
06/07:30pm 12.4 12.5 10.1 86 1.2 CALM 0 0 0 0 1017.8 1017.8 0.0
06/07:00pm 13.0 13.1 10.0 82 1.5 CALM 0 0 0 0 1017.6 1017.6 0.0
06/06:30pm 14.9 15.3 11.1 78 2.0 CALM 0 2 0 1 1017.5 1017.5 0.0
06/06:00pm 17.1 16.2 11.4 69 3.1 SE 7 9 4 5 1017.1 1017.1 0.0
06/05:30pm 18.8 17.5 9.3 54 5.0 SE 6 7 3 4 1016.8 1016.8 0.0
06/05:00pm 20.4 18.5 9.0 48 6.0 ESE 9 13 5 7 1016.7 1016.7 0.0
06/04:30pm 21.3 19.1 9.5 47 6.3 ESE 11 17 6 9 1016.4 1016.4 0.0
06/04:00pm 22.1 19.5 9.3 44 6.9 ESE 13 19 7 10 1016.2 1016.2 0.0
06/03:30pm 22.3 19.6 8.8 42 7.2 SE 13 20 7 11 1016.3 1016.3 0.0
06/03:00pm 22.5 19.9 9.3 43 7.1 ESE 13 19 7 10 1016.4 1016.4 0.0
06/02:30pm 22.9 20.2 10.3 45 6.9 ESE 15 20 8 11 1016.6 1016.6 0.0
06/02:00pm 23.2 20.9 10.6 45 7.0 ESE 13 20 7 11 1016.8 1016.8 0.0
06/01:30pm 21.9 19.6 10.4 48 6.3 ESE 13 22 7 12 1017.0 1017.0 0.0
06/01:00pm 23.1 21.0 11.2 47 6.6 ESE 13 22 7 12 1017.2 1017.2 0.0
06/12:30pm 23.1 21.9 11.5 48 6.5 ENE 9 20 5 11 1017.7 1017.7 0.0
06/12:00pm 21.1 19.6 10.6 51 5.7 ESE 9 15 5 8 1018.4 1018.4 0.0
06/11:30am 21.3 19.1 9.5 47 6.3 SE 11 17 6 9 1018.8 1018.8 0.0
06/11:00am 22.8 20.7 9.9 44 7.0 SE 11 20 6 11 1019.1 1019.1 0.0
06/10:30am 21.8 22.1 14.9 65 4.1 SE 7 13 4 7 1019.4 1019.4 0.0
06/10:00am 20.1 20.1 15.3 74 2.8 S 9 11 5 6 1019.7 1019.7 0.0
06/09:30am 19.1 19.2 15.4 79 2.2 SSE 9 13 5 7 1019.9 1019.9 0.0
06/09:00am 18.0 17.6 15.3 84 1.6 SSE 11 17 6 9 1019.8 1019.8 0.0
06/08:30am 16.0 16.4 14.7 92 0.7 S 6 7 3 4 1019.7 1019.7 0.0
06/08:14am 14.6 14.7 13.8 95 0.4 SW 6 7 3 4 1019.6 1019.6 0.0
06/08:00am 13.8 13.7 13.2 96 0.3 SW 6 7 3 4 1019.6 1019.6 0.0
06/07:53am 13.5 13.3 12.9 96 0.3 SW 6 7 3 4 1019.6 1019.6 0.0
06/07:39am 12.9 12.3 12.3 96 0.3 SW 7 9 4 5 1019.5 1019.5 0.0
06/07:30am 12.0 11.2 11.2 95 0.4 SW 6 7 3 4 1019.5 1019.5 0.0
06/07:00am 10.6 10.6 9.7 94 0.5 CALM 0 0 0 0 1019.4 1019.4 0.0
06/06:30am 10.8 10.9 10.0 95 0.4 CALM 0 2 0 1 1019.2 1019.2 0.0
06/06:00am 11.1 10.1 10.3 95 0.4 WSW 6 7 3 4 1018.9 1018.9 0.0
06/05:30am 11.5 11.8 10.9 96 0.3 CALM 0 0 0 0 1018.8 1018.8 0.0
06/05:00am 10.7 10.3 9.9 95 0.4 SW 2 9 1 5 1018.9 1018.9 0.0
06/04:30am 10.0 9.8 9.1 94 0.4 CALM 0 0 0 0 1018.9 1018.9 0.0
06/04:00am 10.6 10.6 9.8 95 0.4 CALM 0 0 0 0 1019.0 1019.0 0.0
06/03:30am 10.1 9.9 9.2 94 0.4 CALM 0 0 0 0 1019.1 1019.1 0.0
06/03:00am 10.4 10.3 9.6 95 0.4 CALM 0 0 0 0 1019.0 1019.0 0.0
06/02:30am 10.2 10.0 9.1 93 0.5 CALM 0 0 0 0 1019.0 1019.0 0.0
06/02:00am 10.4 10.3 9.3 93 0.5 CALM 0 0 0 0 1019.3 1019.3 0.0
06/01:30am 11.1 11.2 10.3 95 0.4 CALM 0 0 0 0 1019.6 1019.6 0.0
06/01:00am 10.6 10.5 9.5 93 0.5 CALM 0 0 0 0 1019.9 1019.9 0.0
06/12:30am 11.1 11.2 10.0 93 0.6 CALM 0 2 0 1 1020.0 1020.0 0.0
06/12:00am 11.6 11.8 10.5 93 0.6 CALM 0 0 0 0 1020.1 1020.1 0.0
 
Date/Time
EST
Temp
°C
App
Temp
°C
Dew
Point
Rel
Hum
%
Delta-T
°C
Wind Press
QNH
hPa
Press
MSL
hPa
Rain
since 9 am
mm
Dir
 
Spd
km/h
Gust
km/h
Spd
kts
Gust
kts
05/11:30pm 11.5 11.6 10.2 92 0.7 CALM 0 0 0 0 1020.2 1020.2 0.0
05/11:00pm 11.8 12.0 10.5 92 0.7 CALM 0 0 0 0 1020.5 1020.5 0.0
05/10:30pm 12.0 12.2 10.7 92 0.7 CALM 0 0 0 0 1020.6 1020.6 0.0
05/10:00pm 12.6 13.1 11.5 93 0.6 CALM 0 0 0 0 1020.6 1020.6 0.0
05/09:30pm 12.4 12.7 11.0 91 0.7 CALM 0 0 0 0 1020.6 1020.6 0.0
05/09:00pm 12.9 12.6 11.6 92 0.7 SSE 4 7 2 4 1020.5 1020.5 0.0
05/08:30pm 13.3 12.8 11.9 91 0.8 S 6 7 3 4 1020.4 1020.4 0.0
05/08:00pm 14.1 14.4 12.3 89 1.0 S 2 7 1 4 1020.3 1020.3 0.0
05/07:30pm 15.5 15.2 13.2 86 1.3 SSE 7 11 4 6 1020.2 1020.2 0.0
05/07:00pm 16.4 16.2 13.7 84 1.5 SE 7 9 4 5 1019.8 1019.8 0.0
05/06:30pm 17.0 16.9 13.9 82 1.8 SSE 7 9 4 5 1019.5 1019.5 0.0
05/06:00pm 17.7 17.7 14.2 80 2.0 SSE 7 9 4 5 1019.2 1019.2 0.0
05/05:30pm 18.5 18.2 14.4 77 2.4 SE 9 13 5 7 1018.8 1018.8 0.0
05/05:00pm 19.5 18.5 14.5 73 2.9 ESE 13 19 7 10 1018.8 1018.8 0.0
05/04:30pm 20.2 18.3 14.3 69 3.4 ESE 17 26 9 14 1019.0 1019.0 0.0
05/04:00pm 20.7 18.9 14.4 67 3.7 ESE 17 28 9 15 1019.0 1019.0 0.0
05/03:30pm 21.0 18.9 14.6 67 3.8 SE 19 30 10 16 1019.0 1019.0 0.0
05/03:00pm 20.6 19.0 14.9 70 3.3 SE 17 26 9 14 1019.2 1019.2 0.0
05/02:30pm 21.8 19.6 14.4 63 4.3 ESE 19 26 10 14 1019.3 1019.3 0.0
05/02:00pm 21.5 18.9 13.9 62 4.4 ESE 20 32 11 17 1019.5 1019.5 0.0
05/01:30pm 21.4 19.2 14.3 64 4.1 ESE 19 28 10 15 1019.7 1019.7 0.0
05/01:00pm 20.4 18.2 14.3 68 3.5 ESE 19 28 10 15 1020.1 1020.1 0.0
05/12:30pm 21.6 20.0 13.8 61 4.5 SE 15 24 8 13 1020.3 1020.3 0.0
05/12:00pm 22.0 20.3 14.6 63 4.3 SE 17 28 9 15 1020.7 1020.7 0.0
05/11:30am 21.8 20.9 14.9 65 4.1 SE 13 24 7 13 1020.9 1020.9 0.0
05/11:00am 20.7 18.9 14.4 67 3.7 SSE 17 20 9 11 1021.4 1021.4 0.0
05/10:30am 20.8 19.0 14.5 67 3.7 SSE 17 24 9 13 1021.6 1021.6 0.0
05/10:00am 20.0 18.9 15.2 74 2.8 SSE 15 22 8 12 1021.8 1021.8 0.0
05/09:30am 18.5 17.4 15.4 82 1.8 SSE 15 22 8 12 1021.8 1021.8 0.0
05/09:10am 17.4 17.4 15.2 87 1.3 SSE 9 17 5 9 1021.7 1021.7 0.0
05/09:00am 17.2 17.8 15.9 92 0.8 SSE 7 17 4 9 1021.7 1021.7 1.6
05/08:40am 16.6 16.0 14.6 88 1.1 SSE 11 15 6 8 1021.6 1021.6 0.2
05/08:30am 16.8 16.3 14.8 88 1.2 SE 11 15 6 8 1021.5 1021.5 0.2
05/08:00am 16.0 15.7 14.5 91 0.9 ESE 9 11 5 6 1021.1 1021.1 0.2

Other Formats:

Comma delimited format used in spreadsheet applications
http://www.bom.gov.au/fwo/IDQ60801/IDQ60801.94370.axf

JavaScript Object Notation format (JSON) in row-major order
http://www.bom.gov.au/fwo/IDQ60801/IDQ60801.94370.json